createdAt,value
2023-04-14T00:01:17.523Z,3.72
2023-04-14T00:03:45.643Z,2.20
2023-04-14T00:06:12.920Z,4.15
2023-04-14T00:08:40.342Z,3.88
2023-04-14T00:11:07.598Z,2.22
2023-04-14T00:13:34.964Z,2.63
2023-04-14T00:16:02.495Z,3.33
2023-04-14T00:18:38.410Z,4.15
2023-04-14T00:21:05.734Z,3.65
2023-04-14T00:23:32.991Z,2.72
2023-04-14T00:26:00.587Z,3.65
2023-04-14T00:28:27.710Z,2.33
2023-04-14T00:30:54.916Z,2.40
2023-04-14T00:33:22.218Z,2.28
2023-04-14T00:35:51.196Z,2.10
2023-04-14T00:38:18.404Z,2.47
2023-04-14T00:40:45.876Z,2.20
2023-04-14T00:43:13.040Z,3.92
2023-04-14T00:45:46.783Z,2.75
2023-04-14T00:48:18.778Z,1.92
2023-04-14T00:50:47.570Z,3.67
2023-04-14T00:53:15.046Z,2.95
2023-04-14T00:55:42.869Z,2.75
2023-04-14T00:58:11.022Z,3.78
2023-04-14T01:00:38.555Z,2.67
2023-04-14T01:03:06.779Z,4.75
2023-04-14T01:05:34.527Z,4.78
2023-04-14T01:08:03.918Z,2.95
2023-04-14T01:10:41.445Z,4.03
2023-04-14T01:13:35.371Z,2.40
2023-04-14T01:16:29.439Z,2.72
2023-04-14T01:19:38.101Z,4.18
2023-04-14T01:22:09.825Z,4.90
2023-04-14T01:25:19.722Z,4.55
2023-04-14T01:28:28.362Z,4.15
2023-04-14T01:31:38.320Z,3.70
2023-04-14T01:34:33.839Z,3.88
2023-04-14T01:37:17.172Z,3.80
2023-04-14T01:39:54.657Z,3.10
2023-04-14T01:42:31.226Z,3.00
2023-04-14T01:45:10.963Z,3.25
2023-04-14T01:47:41.971Z,3.25
2023-04-14T01:50:11.663Z,3.90
2023-04-14T01:52:43.457Z,2.97
2023-04-14T01:55:11.773Z,3.55
2023-04-14T01:57:44.301Z,3.77
2023-04-14T02:00:13.681Z,2.80
2023-04-14T02:02:47.023Z,4.60
2023-04-14T02:05:18.523Z,3.42
2023-04-14T02:07:51.447Z,4.25
2023-04-14T02:10:21.873Z,4.55
2023-04-14T02:12:54.939Z,4.80
2023-04-14T02:15:24.394Z,4.07
2023-04-14T02:17:52.855Z,3.72
2023-04-14T02:22:48.772Z,3.10
2023-04-14T02:25:16.268Z,4.22
2023-04-14T02:28:02.921Z,4.38
2023-04-14T02:30:39.752Z,4.03
2023-04-14T02:33:17.019Z,4.68
2023-04-14T02:35:55.981Z,4.60
2023-04-14T02:38:35.579Z,4.82
2023-04-14T02:41:28.447Z,6.28
2023-04-14T02:44:24.208Z,4.18
2023-04-14T02:47:10.477Z,5.07
2023-04-14T02:49:48.337Z,4.38
2023-04-14T02:52:22.004Z,4.05
2023-04-14T02:54:51.555Z,4.75
2023-04-14T02:57:19.475Z,4.43
2023-04-14T02:59:54.229Z,6.72
2023-04-14T03:02:23.708Z,5.47
2023-04-14T03:05:17.956Z,6.07
2023-04-14T03:08:00.284Z,4.95
2023-04-14T03:10:28.277Z,5.55
2023-04-14T03:12:58.893Z,4.40
2023-04-14T03:15:27.985Z,6.68
2023-04-14T03:17:57.648Z,5.15
2023-04-14T03:20:26.920Z,4.97
2023-04-14T03:23:01.768Z,5.43
2023-04-14T03:25:37.897Z,6.53
2023-04-14T03:28:15.845Z,6.45
2023-04-14T03:30:50.873Z,5.50
2023-04-14T03:33:24.979Z,5.97
2023-04-14T03:35:56.736Z,8.40
2023-04-14T03:38:27.972Z,6.20
2023-04-14T03:40:59.975Z,6.60
2023-04-14T03:43:29.517Z,5.38
2023-04-14T03:46:05.342Z,8.52
2023-04-14T03:48:38.692Z,6.20
2023-04-14T03:51:09.071Z,5.22
2023-04-14T03:53:41.769Z,5.68
2023-04-14T03:56:14.426Z,4.60
2023-04-14T03:58:50.720Z,8.57
2023-04-14T04:01:25.733Z,4.68
2023-04-14T04:03:55.741Z,6.75
2023-04-14T04:06:24.428Z,6.18
2023-04-14T04:08:53.484Z,5.18
2023-04-14T04:11:24.933Z,6.07
2023-04-14T04:13:57.229Z,6.57
2023-04-14T04:16:27.850Z,5.03
2023-04-14T04:18:55.760Z,5.75
2023-04-14T04:21:32.396Z,6.03
2023-04-14T04:24:02.209Z,7.70
2023-04-14T04:26:30.259Z,5.32
2023-04-14T04:28:58.501Z,6.88
2023-04-14T04:31:28.825Z,4.95
2023-04-14T04:33:59.707Z,6.78
2023-04-14T04:36:28.243Z,5.18
2023-04-14T04:41:28.616Z,5.75
2023-04-14T04:43:59.072Z,7.13
2023-04-14T04:46:46.081Z,7.25
2023-04-14T04:49:15.278Z,6.38
2023-04-14T04:51:44.263Z,6.90
2023-04-14T04:54:11.780Z,5.35
2023-04-14T04:56:38.973Z,9.65
2023-04-14T04:59:06.673Z,6.35
2023-04-14T05:01:34.251Z,7.53
2023-04-14T05:04:01.662Z,7.57
2023-04-14T05:06:28.962Z,6.72
2023-04-14T05:08:56.562Z,8.40
2023-04-14T05:11:23.934Z,6.95
2023-04-14T05:13:51.106Z,7.00
2023-04-14T05:16:18.476Z,6.10
2023-04-14T05:18:48.171Z,5.55
2023-04-14T05:21:15.915Z,7.15
2023-04-14T05:23:45.918Z,7.47
2023-04-14T05:26:38.742Z,7.03
2023-04-14T05:29:02.207Z,7.40
2023-04-14T05:31:29.741Z,5.80
2023-04-14T05:33:56.928Z,6.47
2023-04-14T05:36:24.317Z,8.25
2023-04-14T05:38:51.558Z,6.88
2023-04-14T05:41:18.725Z,7.60
2023-04-14T05:43:45.913Z,8.48
2023-04-14T05:46:13.085Z,10.02
2023-04-14T05:48:40.497Z,7.72
2023-04-14T05:51:07.658Z,8.25
2023-04-14T05:53:34.928Z,12.18
2023-04-14T05:56:02.201Z,9.23
2023-04-14T05:58:29.502Z,10.23
2023-04-14T06:00:56.660Z,9.00
2023-04-14T06:03:26.631Z,6.10
2023-04-14T06:05:53.970Z,7.68
2023-04-14T06:08:21.284Z,11.05
2023-04-14T06:10:48.474Z,8.73
2023-04-14T06:13:16.809Z,9.07
2023-04-14T06:15:44.062Z,9.93
2023-04-14T06:18:11.240Z,11.77
2023-04-14T06:20:39.049Z,11.30
2023-04-14T06:23:06.654Z,10.07
2023-04-14T06:25:37.035Z,12.35
2023-04-14T06:28:04.348Z,9.23
2023-04-14T06:30:34.625Z,11.80
2023-04-14T06:33:04.343Z,9.77
2023-04-14T06:35:33.930Z,8.10
2023-04-14T06:38:02.728Z,9.45
2023-04-14T06:40:30.598Z,9.45
2023-04-14T06:42:58.263Z,10.50
2023-04-14T06:45:26.154Z,8.43
2023-04-14T06:47:53.395Z,8.63
2023-04-14T06:50:20.625Z,10.82
2023-04-14T06:52:47.784Z,8.80
2023-04-14T06:55:15.531Z,11.48
2023-04-14T06:57:42.846Z,9.30
2023-04-14T07:00:11.379Z,8.40
2023-04-14T07:02:39.520Z,9.50
2023-04-14T07:05:07.832Z,8.70
2023-04-14T07:07:37.195Z,9.35
2023-04-14T07:10:05.294Z,7.90
2023-04-14T07:12:33.794Z,8.75
2023-04-14T07:17:28.188Z,9.75
2023-04-14T07:19:56.740Z,8.93
2023-04-14T07:22:23.991Z,7.28
2023-04-14T07:24:51.634Z,8.32
2023-04-14T07:27:18.808Z,7.50
2023-04-14T07:29:46.177Z,7.75
2023-04-14T07:32:13.661Z,8.27
2023-04-14T07:34:43.717Z,10.30
2023-04-14T07:37:11.780Z,7.72
2023-04-14T07:39:39.674Z,7.82
2023-04-14T07:42:07.117Z,7.82
2023-04-14T07:44:34.554Z,17.40
2023-04-14T07:47:01.768Z,9.30
2023-04-14T07:49:28.949Z,8.75
2023-04-14T07:51:56.833Z,7.65
2023-04-14T07:54:24.507Z,6.82
2023-04-14T07:56:51.960Z,8.20
2023-04-14T07:59:19.134Z,10.05
2023-04-14T08:01:46.530Z,8.32
2023-04-14T08:04:14.188Z,9.15
2023-04-14T08:06:41.616Z,7.35
2023-04-14T08:09:08.798Z,8.13
2023-04-14T08:11:36.027Z,6.32
2023-04-14T08:14:04.640Z,8.32
2023-04-14T08:16:36.530Z,7.28
2023-04-14T08:19:05.224Z,7.45
2023-04-14T08:21:33.181Z,8.88
2023-04-14T08:24:01.013Z,6.78
2023-04-14T08:26:28.466Z,6.82
2023-04-14T08:28:55.788Z,7.93
2023-04-14T08:31:24.864Z,6.13
2023-04-14T08:33:52.888Z,7.32
2023-04-14T08:36:20.961Z,6.45
2023-04-14T08:38:48.417Z,6.45
2023-04-14T08:41:21.015Z,5.68
2023-04-14T08:43:48.294Z,7.13
2023-04-14T08:46:16.809Z,8.00
2023-04-14T08:48:48.008Z,6.72
2023-04-14T08:51:39.674Z,6.70
2023-04-14T08:54:11.145Z,6.72
2023-04-14T08:56:41.976Z,8.73
2023-04-14T08:59:11.546Z,7.28
2023-04-14T09:01:39.815Z,11.88
2023-04-14T09:04:08.398Z,5.60
2023-04-14T09:06:36.426Z,10.43
2023-04-14T09:09:09.964Z,6.50
2023-04-14T09:11:37.820Z,8.02
2023-04-14T09:14:06.063Z,6.32
2023-04-14T09:16:33.420Z,6.00
2023-04-14T09:19:07.032Z,6.80
2023-04-14T09:21:51.581Z,6.38
2023-04-14T09:24:31.757Z,6.90
2023-04-14T09:27:06.743Z,7.70
2023-04-14T09:29:34.568Z,6.35
2023-04-14T09:32:02.374Z,6.25
2023-04-14T09:34:29.733Z,7.40
2023-04-14T09:37:06.919Z,7.43
2023-04-14T09:39:36.937Z,6.72
2023-04-14T09:42:09.620Z,7.22
2023-04-14T09:44:54.478Z,7.85
2023-04-14T09:47:26.546Z,7.55
2023-04-14T09:50:03.298Z,7.75
2023-04-14T09:52:40.298Z,7.05
2023-04-14T09:55:16.083Z,8.23
2023-04-14T09:57:47.601Z,7.40
2023-04-14T10:00:24.438Z,6.32
2023-04-14T10:03:01.390Z,7.00
2023-04-14T10:08:05.905Z,6.00
2023-04-14T10:10:33.268Z,9.20
2023-04-14T10:13:00.939Z,7.25
2023-04-14T10:15:28.548Z,8.88
2023-04-14T10:17:56.766Z,5.15
2023-04-14T10:20:25.150Z,7.13
2023-04-14T10:25:20.675Z,8.77
2023-04-14T10:27:49.679Z,7.07
2023-04-14T10:30:17.060Z,5.88
2023-04-14T10:32:49.923Z,6.00
2023-04-14T10:35:19.330Z,6.10
2023-04-14T10:37:53.660Z,8.10
2023-04-14T10:40:22.814Z,5.97
2023-04-14T10:42:56.366Z,6.38
2023-04-14T10:45:23.822Z,5.38
2023-04-14T10:47:51.804Z,6.43
2023-04-14T10:50:25.044Z,5.03
2023-04-14T10:52:58.996Z,6.13
2023-04-14T10:55:28.115Z,6.00
2023-04-14T10:58:06.504Z,5.50
2023-04-14T11:00:39.142Z,6.30
2023-04-14T11:03:16.941Z,5.43
2023-04-14T11:05:49.294Z,5.47
2023-04-14T11:08:34.471Z,5.43
2023-04-14T11:11:06.116Z,5.97
2023-04-14T11:13:34.923Z,6.10
2023-04-14T11:16:07.837Z,5.20
2023-04-14T11:18:46.086Z,7.57
2023-04-14T11:21:16.960Z,5.78
2023-04-14T11:23:44.584Z,5.95
2023-04-14T11:26:13.987Z,5.30
2023-04-14T11:28:44.614Z,5.50
2023-04-14T11:31:15.864Z,6.50
2023-04-14T11:33:44.583Z,6.35
2023-04-14T11:36:12.903Z,4.78
2023-04-14T11:38:40.732Z,5.00
2023-04-14T11:41:09.480Z,4.45
2023-04-14T11:43:38.818Z,3.15
2023-04-14T11:46:08.213Z,3.80
2023-04-14T11:48:35.506Z,2.83
2023-04-14T11:51:03.749Z,3.20
2023-04-14T11:53:32.261Z,4.43
2023-04-14T11:56:00.836Z,4.28
2023-04-14T11:58:28.871Z,4.25
2023-04-14T12:00:59.779Z,2.45
2023-04-14T12:03:35.660Z,3.72
2023-04-14T12:06:03.786Z,3.65
2023-04-14T12:08:32.622Z,3.63
2023-04-14T12:11:15.606Z,3.42
2023-04-14T12:13:45.446Z,4.10
2023-04-14T12:16:14.911Z,3.22
2023-04-14T12:18:43.768Z,3.58
2023-04-14T12:21:16.562Z,3.47
2023-04-14T12:23:50.504Z,2.30
2023-04-14T12:26:20.679Z,3.70
2023-04-14T12:28:57.523Z,2.38
2023-04-14T12:31:31.956Z,0.85
2023-04-14T12:34:03.727Z,1.80
2023-04-14T12:36:48.037Z,1.90
2023-04-14T12:39:17.157Z,0.63
2023-04-14T12:41:44.603Z,0.93
2023-04-14T12:44:30.416Z,1.63
2023-04-14T12:46:58.151Z,1.92
2023-04-14T12:49:36.665Z,1.00
2023-04-14T12:52:05.326Z,0.60
2023-04-14T12:54:54.542Z,0.75
2023-04-14T12:57:22.480Z,2.90
2023-04-14T12:59:50.456Z,1.80
2023-04-14T13:02:18.571Z,1.73
2023-04-14T13:04:45.906Z,0.68
2023-04-14T13:07:13.072Z,2.45
2023-04-14T13:09:40.301Z,1.13
2023-04-14T13:12:07.457Z,2.55
2023-04-14T13:14:34.637Z,1.75
2023-04-14T13:17:02.840Z,0.82
2023-04-14T13:21:57.100Z,0.50
2023-04-14T13:24:25.398Z,1.63
2023-04-14T13:26:52.615Z,1.08
2023-04-14T13:29:19.832Z,0.63
2023-04-14T13:31:47.087Z,1.88
2023-04-14T13:34:14.430Z,1.20
2023-04-14T13:36:41.586Z,0.70
2023-04-14T13:39:08.922Z,1.80
2023-04-14T13:41:38.565Z,0.95
2023-04-14T13:44:05.890Z,1.40
2023-04-14T13:46:40.612Z,1.80
2023-04-14T13:49:08.523Z,1.75
2023-04-14T13:51:35.750Z,2.40
2023-04-14T13:54:02.896Z,2.45
2023-04-14T13:56:30.291Z,1.38
2023-04-14T13:58:57.500Z,0.95
2023-04-14T14:01:26.451Z,1.08
2023-04-14T14:03:53.775Z,0.68
2023-04-14T14:06:21.429Z,0.60
2023-04-14T14:09:05.228Z,0.93
2023-04-14T14:11:34.443Z,1.25
2023-04-14T14:14:01.867Z,1.45
2023-04-14T14:16:36.655Z,1.88
2023-04-14T14:19:07.963Z,1.05
2023-04-14T14:21:35.634Z,0.85
2023-04-14T14:24:03.813Z,0.93
2023-04-14T14:26:31.276Z,1.05
2023-04-14T14:28:58.492Z,1.90
2023-04-14T14:31:26.027Z,1.65
2023-04-14T14:33:53.250Z,0.93
2023-04-14T14:36:20.433Z,1.40
2023-04-14T14:38:47.672Z,0.75
2023-04-14T14:41:14.813Z,0.65
2023-04-14T14:43:42.084Z,0.40
2023-04-14T14:46:09.343Z,0.63
2023-04-14T14:48:36.617Z,1.48
2023-04-14T14:51:04.408Z,1.27
2023-04-14T14:53:32.393Z,2.25
2023-04-14T14:55:59.542Z,2.20
2023-04-14T14:58:26.807Z,1.10
2023-04-14T15:00:54.368Z,2.72
2023-04-14T15:03:21.839Z,1.83
2023-04-14T15:05:49.716Z,1.58
2023-04-14T15:08:17.038Z,1.13
2023-04-14T15:10:44.234Z,1.13
2023-04-14T15:13:12.703Z,0.73
2023-04-14T15:15:42.309Z,1.05
2023-04-14T15:18:10.442Z,3.47
2023-04-14T15:20:37.607Z,2.10
2023-04-14T15:23:04.831Z,1.45
2023-04-14T15:25:31.947Z,2.05
2023-04-14T15:27:59.175Z,2.15
2023-04-14T15:30:27.137Z,1.38
2023-04-14T15:32:54.655Z,3.78
2023-04-14T15:35:21.838Z,1.77
2023-04-14T15:37:48.969Z,3.00
2023-04-14T15:40:16.258Z,3.17
2023-04-14T15:42:43.999Z,2.03
2023-04-14T15:45:11.901Z,2.15
2023-04-14T15:47:39.226Z,4.78
2023-04-14T15:50:09.948Z,1.65
2023-04-14T15:52:41.131Z,4.27
2023-04-14T15:55:10.647Z,2.22
2023-04-14T15:57:37.923Z,1.95
2023-04-14T16:00:08.499Z,0.93
2023-04-14T16:02:43.180Z,2.28
2023-04-14T16:05:11.147Z,2.45
2023-04-14T16:07:40.004Z,1.10
2023-04-14T16:10:08.454Z,1.85
2023-04-14T16:12:36.659Z,2.53
2023-04-14T16:15:08.059Z,2.83
2023-04-14T16:17:35.640Z,1.23
2023-04-14T16:20:03.583Z,2.85
2023-04-14T16:24:58.278Z,1.83
2023-04-14T16:27:25.408Z,2.03
2023-04-14T16:29:52.791Z,2.15
2023-04-14T16:32:19.963Z,2.55
2023-04-14T16:34:47.319Z,1.58
2023-04-14T16:37:14.621Z,1.90
2023-04-14T16:39:41.821Z,1.67
2023-04-14T16:42:09.485Z,1.48
2023-04-14T16:44:37.093Z,3.47
2023-04-14T16:47:04.281Z,3.20
2023-04-14T16:49:31.689Z,3.22
2023-04-14T16:52:00.344Z,3.50
2023-04-14T16:54:28.022Z,2.55
2023-04-14T16:56:55.128Z,4.03
2023-04-14T16:59:22.678Z,4.13
2023-04-14T17:01:50.145Z,3.30
2023-04-14T17:04:17.773Z,5.47
2023-04-14T17:06:46.198Z,1.75
2023-04-14T17:09:13.557Z,1.88
2023-04-14T17:11:42.416Z,3.78
2023-04-14T17:14:10.243Z,1.90
2023-04-14T17:16:38.051Z,2.00
2023-04-14T17:19:05.263Z,2.33
2023-04-14T17:21:32.395Z,2.85
2023-04-14T17:23:59.595Z,3.13
2023-04-14T17:26:27.113Z,3.97
2023-04-14T17:28:54.360Z,3.10
2023-04-14T17:31:21.507Z,4.38
2023-04-14T17:33:48.935Z,2.75
2023-04-14T17:36:17.380Z,3.42
2023-04-14T17:38:45.696Z,3.58
2023-04-14T17:41:13.715Z,4.13
2023-04-14T17:43:41.472Z,3.65
2023-04-14T17:46:09.155Z,3.53
2023-04-14T17:48:37.021Z,2.63
2023-04-14T17:51:04.953Z,2.63
2023-04-14T17:53:32.300Z,3.47
2023-04-14T17:55:59.612Z,3.35
2023-04-14T17:58:27.208Z,2.97
2023-04-14T18:00:54.377Z,2.72
2023-04-14T18:03:21.650Z,3.13
2023-04-14T18:05:49.155Z,1.73
2023-04-14T18:08:16.917Z,3.97
2023-04-14T18:10:45.913Z,4.18
2023-04-14T18:13:13.243Z,3.25
2023-04-14T18:15:41.900Z,3.15
2023-04-14T18:18:09.158Z,4.57
2023-04-14T18:20:37.450Z,5.35
2023-04-14T18:28:03.608Z,4.57
2023-04-14T18:30:31.355Z,3.42
2023-04-14T18:32:58.754Z,3.13
2023-04-14T18:35:26.482Z,2.85
2023-04-14T18:37:53.716Z,4.75
2023-04-14T18:40:21.104Z,3.92
2023-04-14T18:42:49.073Z,3.75
2023-04-14T18:45:16.542Z,3.95
2023-04-14T18:47:45.891Z,3.70
2023-04-14T18:50:13.276Z,2.10
2023-04-14T18:52:40.659Z,2.80
2023-04-14T18:55:09.415Z,2.40
2023-04-14T18:57:36.885Z,2.35
2023-04-14T19:00:05.213Z,2.40
2023-04-14T19:05:02.523Z,3.83
2023-04-14T19:07:29.884Z,3.67
2023-04-14T19:09:57.134Z,4.03
2023-04-14T19:12:28.533Z,4.82
2023-04-14T19:14:56.422Z,2.60
2023-04-14T19:17:23.909Z,2.88
2023-04-14T19:19:51.145Z,4.68
2023-04-14T19:22:18.301Z,3.25
2023-04-14T19:24:45.460Z,2.90
2023-04-14T19:27:12.575Z,2.45
2023-04-14T19:29:39.759Z,2.47
2023-04-14T19:32:07.130Z,3.22
2023-04-14T19:34:34.557Z,2.28
2023-04-14T19:37:03.972Z,2.17
2023-04-14T19:39:31.534Z,2.55
2023-04-14T19:41:58.671Z,3.95
2023-04-14T19:44:27.104Z,3.83
2023-04-14T19:49:21.494Z,2.75
2023-04-14T19:51:50.819Z,3.08
2023-04-14T19:54:18.250Z,3.17
2023-04-14T19:56:45.427Z,2.65
2023-04-14T19:59:12.604Z,2.45
2023-04-14T20:01:40.895Z,4.85
2023-04-14T20:04:12.667Z,6.72
2023-04-14T20:06:41.376Z,4.93
2023-04-14T20:11:36.145Z,5.70
2023-04-14T20:14:05.732Z,3.38
2023-04-14T20:16:33.014Z,3.72
2023-04-14T20:19:00.787Z,3.70
2023-04-14T20:21:28.189Z,5.38
2023-04-14T20:23:55.325Z,3.67
2023-04-14T20:26:23.070Z,5.28
2023-04-14T20:28:50.309Z,6.93
2023-04-14T20:31:18.269Z,5.00
2023-04-14T20:33:45.480Z,3.65
2023-04-14T20:36:12.637Z,3.03
2023-04-14T20:38:39.770Z,4.68
2023-04-14T20:41:06.950Z,5.35
2023-04-14T20:43:34.396Z,5.05
2023-04-14T20:46:03.740Z,5.00
2023-04-14T20:48:32.186Z,5.45
2023-04-14T20:51:00.525Z,5.72
2023-04-14T20:53:29.874Z,3.63
2023-04-14T20:55:57.208Z,4.75
2023-04-14T20:58:24.623Z,4.43
2023-04-14T21:00:51.839Z,4.53
2023-04-14T21:03:19.238Z,3.33
2023-04-14T21:05:47.223Z,3.13
2023-04-14T21:08:14.415Z,3.03
2023-04-14T21:11:14.732Z,3.65
2023-04-14T21:15:28.763Z,4.05
2023-04-14T21:16:17.225Z,3.10
2023-04-14T21:18:44.496Z,5.65
2023-04-14T21:21:12.951Z,3.35
2023-04-14T21:26:07.995Z,3.05
2023-04-14T21:28:35.528Z,3.60
2023-04-14T21:31:06.601Z,3.65
2023-04-14T21:33:34.065Z,5.68
2023-04-14T21:36:01.799Z,3.70
2023-04-14T21:38:29.425Z,4.63
2023-04-14T21:40:57.136Z,5.75
2023-04-14T21:43:24.329Z,3.47
2023-04-14T21:45:51.878Z,3.45
2023-04-14T21:48:19.150Z,3.30
2023-04-14T21:50:46.689Z,4.53
2023-04-14T21:53:14.000Z,4.75
2023-04-14T21:55:42.030Z,5.68
2023-04-14T21:58:09.289Z,5.28
2023-04-14T22:00:37.142Z,3.97
2023-04-14T22:03:04.637Z,5.68
2023-04-14T22:05:32.012Z,3.75
2023-04-14T22:07:59.768Z,3.95
2023-04-14T22:10:32.015Z,5.07
2023-04-14T22:13:00.411Z,3.85
2023-04-14T22:15:27.771Z,4.68
2023-04-14T22:17:55.066Z,4.82
2023-04-14T22:20:23.700Z,3.63
2023-04-14T22:22:50.828Z,7.95
2023-04-14T22:25:18.101Z,5.45
2023-04-14T22:27:45.245Z,4.90
2023-04-14T22:30:12.880Z,5.40
2023-04-14T22:32:40.095Z,6.75
2023-04-14T22:35:08.034Z,5.32
2023-04-14T22:37:35.153Z,3.83
2023-04-14T22:40:03.272Z,4.25
2023-04-14T22:42:30.961Z,5.60
2023-04-14T22:44:58.114Z,3.83
2023-04-14T22:47:25.315Z,4.22
2023-04-14T22:49:52.575Z,5.05
2023-04-14T22:52:19.771Z,4.07
2023-04-14T22:54:48.718Z,2.97
2023-04-14T22:57:15.973Z,7.65
2023-04-14T22:59:43.220Z,3.75
2023-04-14T23:02:11.397Z,3.00
2023-04-14T23:04:39.442Z,4.07
2023-04-14T23:07:06.696Z,3.30
2023-04-14T23:09:33.866Z,3.22
2023-04-14T23:12:02.584Z,4.47
2023-04-14T23:14:29.854Z,3.25
2023-04-14T23:16:58.074Z,2.90
2023-04-14T23:19:25.992Z,3.10
2023-04-14T23:21:53.176Z,2.45
2023-04-14T23:24:22.263Z,2.60
2023-04-14T23:26:49.401Z,3.00
2023-04-14T23:29:16.592Z,3.22
2023-04-14T23:31:43.791Z,3.30
2023-04-14T23:34:11.067Z,3.35
2023-04-14T23:36:38.358Z,3.03
2023-04-14T23:39:05.655Z,4.07
2023-04-14T23:41:32.957Z,3.33
2023-04-14T23:44:00.200Z,3.35
2023-04-14T23:46:27.580Z,3.58
2023-04-14T23:48:54.782Z,2.95
2023-04-14T23:51:23.022Z,4.00
2023-04-14T23:53:51.283Z,4.30
2023-04-14T23:56:18.527Z,5.03
2023-04-14T23:58:45.705Z,3.53
